Time;durP1;ratioP1;P1;durP2;ratioP2;P2;SDS_P1;SDS_P2;PMS_P1;PMS_P2;Temp;Humidity;BMP_temperature;BMP_pressure;BME280_temperature;BME280_humidity;BME280_pressure;Samples;Min_cycle;Max_cycle;Signal;HPM_P1;HPM_P2
2022/04/05 00:01:17;;;;;;;52.80;25.80;;;10.80;99.90;;;;;;5051837;28;20037;-83
2022/04/05 00:03:43;;;;;;;44.30;24.35;;;10.80;99.90;;;;;;5052837;28;20132;-84
2022/04/05 00:06:08;;;;;;;48.92;25.75;;;10.80;99.90;;;;;;5052981;28;20021;-84
2022/04/05 00:08:34;;;;;;;49.13;24.90;;;10.80;99.90;;;;;;5052636;28;20037;-84
2022/04/05 00:11:00;;;;;;;47.25;23.77;;;10.80;99.90;;;;;;5053491;28;20025;-83
2022/04/05 00:13:26;;;;;;;53.55;26.00;;;10.80;99.90;;;;;;5052751;28;20060;-84
2022/04/05 00:15:52;;;;;;;52.15;20.40;;;10.80;99.90;;;;;;5052842;28;20112;-84
2022/04/05 00:18:17;;;;;;;45.47;23.77;;;10.80;99.90;;;;;;5052924;28;20116;-84
2022/04/05 00:20:43;;;;;;;47.22;23.35;;;10.80;99.90;;;;;;5052965;28;20039;-84
2022/04/05 00:23:09;;;;;;;50.10;22.83;;;10.80;99.90;;;;;;5052310;28;20159;-84
2022/04/05 00:25:35;;;;;;;44.55;23.40;;;10.80;99.90;;;;;;5052712;28;20029;-84
2022/04/05 00:28:02;;;;;;;42.28;22.55;;;10.90;99.90;;;;;;5052555;28;20052;-84
2022/04/05 00:30:27;;;;;;;44.58;22.13;;;10.90;99.90;;;;;;5052839;28;20043;-84
2022/04/05 00:32:53;;;;;;;43.17;21.65;;;10.90;99.90;;;;;;5052760;28;20017;-85
2022/04/05 00:35:19;;;;;;;46.85;22.02;;;10.90;99.90;;;;;;5055551;28;20516;-85
2022/04/05 00:37:45;;;;;;;39.85;19.88;;;10.90;99.90;;;;;;5056526;28;20037;-85
2022/04/05 00:40:11;;;;;;;48.95;23.02;;;10.90;99.90;;;;;;5056593;28;20021;-84
2022/04/05 00:42:36;;;;;;;46.05;22.35;;;10.90;99.90;;;;;;5056598;28;20195;-85
2022/04/05 00:45:07;;;;;;;32.65;14.68;;;10.90;99.90;;;;;;5055372;28;20389;-84
2022/04/05 00:47:34;;;;;;;37.40;19.88;;;10.90;99.90;;;;;;5056399;28;20029;-85
2022/04/05 00:50:02;;;;;;;47.80;21.25;;;10.90;99.90;;;;;;5056465;28;20040;-85
2022/04/05 00:52:27;;;;;;;47.55;19.42;;;10.90;99.90;;;;;;5056327;28;20412;-84
2022/04/05 00:54:55;;;;;;;36.63;14.05;;;10.90;99.90;;;;;;5056478;28;20043;-85
2022/04/05 00:57:23;;;;;;;41.10;15.43;;;10.90;99.90;;;;;;5056368;28;20029;-84
2022/04/05 00:59:55;;;;;;;44.00;17.60;;;10.90;99.90;;;;;;5056361;28;20477;-84
2022/04/05 01:02:21;;;;;;;24.02;12.80;;;10.90;99.90;;;;;;5056000;28;20520;-84
2022/04/05 01:04:48;;;;;;;32.70;15.50;;;11.00;99.90;;;;;;5056183;28;20032;-83
2022/04/05 01:07:23;;;;;;;39.20;16.00;;;11.00;99.90;;;;;;5055981;28;20072;-84
2022/04/05 01:09:53;;;;;;;29.52;16.75;;;10.90;99.90;;;;;;5054943;28;20021;-84
2022/04/05 01:12:21;;;;;;;30.83;14.70;;;10.90;99.90;;;;;;5056168;28;20120;-84
2022/04/05 01:14:47;;;;;;;27.90;12.02;;;10.90;99.90;;;;;;5055999;28;20044;-84
2022/04/05 01:17:13;;;;;;;30.13;13.00;;;10.90;99.90;;;;;;5056241;28;20507;-83
2022/04/05 01:19:39;;;;;;;24.77;13.48;;;10.90;99.90;;;;;;5056056;28;20025;-83
2022/04/05 01:22:05;;;;;;;24.45;11.50;;;10.90;99.90;;;;;;5055503;28;20083;-81
2022/04/05 01:24:32;;;;;;;27.13;13.00;;;10.90;99.90;;;;;;5055708;28;20041;-82
2022/04/05 01:26:59;;;;;;;30.35;12.50;;;10.90;99.90;;;;;;5056177;28;20354;-81
2022/04/05 01:29:26;;;;;;;24.77;13.55;;;10.90;99.90;;;;;;5055763;28;20039;-75
2022/04/05 01:31:56;;;;;;;20.80;11.93;;;10.90;99.90;;;;;;5056199;28;20413;-84
2022/04/05 01:34:24;;;;;;;28.35;12.95;;;10.90;99.90;;;;;;5055628;28;20025;-83
2022/04/05 01:36:53;;;;;;;26.02;12.25;;;10.90;99.90;;;;;;5055887;28;20108;-82
2022/04/05 01:39:21;;;;;;;25.42;12.73;;;11.00;99.90;;;;;;5055575;28;20047;-80
2022/04/05 01:41:55;;;;;;;25.02;12.70;;;11.00;99.90;;;;;;5054231;28;20556;-84
2022/04/05 01:44:21;;;;;;;26.48;12.50;;;10.90;99.90;;;;;;5055637;28;20037;-82
2022/04/05 01:46:47;;;;;;;25.90;11.55;;;11.00;99.90;;;;;;5051528;28;20092;-77
2022/04/05 01:49:13;;;;;;;24.90;12.57;;;10.90;99.90;;;;;;5036764;28;20040;-84
2022/04/05 01:51:41;;;;;;;25.48;12.27;;;10.90;99.90;;;;;;5035009;28;20037;-81
2022/04/05 01:54:09;;;;;;;19.77;10.82;;;10.90;99.90;;;;;;5034172;28;20044;-83
2022/04/05 01:56:42;;;;;;;21.48;11.73;;;10.80;99.90;;;;;;5035277;28;20025;-81
2022/04/05 01:59:08;;;;;;;20.00;11.50;;;10.80;99.90;;;;;;5035484;28;20068;-80
2022/04/05 02:01:34;;;;;;;23.63;12.65;;;10.90;99.90;;;;;;5033937;28;20442;-82
2022/04/05 02:03:59;;;;;;;28.50;12.20;;;10.80;99.90;;;;;;5052791;28;20045;-80
2022/04/05 02:06:25;;;;;;;22.10;11.80;;;10.80;99.90;;;;;;5054681;28;20021;-81
2022/04/05 02:08:51;;;;;;;19.10;11.15;;;10.90;99.90;;;;;;5055263;28;20116;-83
2022/04/05 02:11:17;;;;;;;21.23;8.73;;;10.90;99.90;;;;;;5053464;28;20156;-82
2022/04/05 02:13:47;;;;;;;19.55;10.75;;;10.80;99.90;;;;;;5053917;28;20039;-83
2022/04/05 02:16:13;;;;;;;16.52;10.30;;;10.80;99.90;;;;;;5053576;28;20021;-83
2022/04/05 02:18:39;;;;;;;19.23;10.50;;;10.80;99.90;;;;;;5053825;28;20025;-83
2022/04/05 02:21:05;;;;;;;16.27;9.75;;;10.80;99.90;;;;;;5054547;28;20065;-81
2022/04/05 02:23:32;;;;;;;19.25;9.25;;;10.80;99.90;;;;;;5053430;28;20025;-81
2022/04/05 02:26:09;;;;;;;23.40;10.05;;;10.80;99.90;;;;;;5053199;28;20492;-81
2022/04/05 02:28:41;;;;;;;18.77;9.93;;;10.80;99.90;;;;;;5053618;28;20163;-83
2022/04/05 02:31:11;;;;;;;17.20;8.73;;;10.80;99.90;;;;;;5053294;28;20033;-81
2022/04/05 02:33:38;;;;;;;18.95;9.05;;;10.80;99.90;;;;;;5053012;28;20419;-82
2022/04/05 02:36:10;;;;;;;20.27;9.18;;;10.80;99.90;;;;;;5054494;28;20474;-81
2022/04/05 02:38:36;;;;;;;15.55;8.02;;;10.80;99.90;;;;;;5036819;28;20029;-83
2022/04/05 02:41:06;;;;;;;15.98;8.95;;;10.80;99.90;;;;;;5053271;28;20072;-82
2022/04/05 02:43:34;;;;;;;14.73;8.73;;;10.70;99.90;;;;;;5054419;28;20489;-79
2022/04/05 02:46:02;;;;;;;16.20;8.35;;;10.70;99.90;;;;;;5036450;28;20032;-84
2022/04/05 02:48:30;;;;;;;19.10;9.57;;;10.70;99.90;;;;;;5033299;28;20021;-84
2022/04/05 02:50:57;;;;;;;16.45;8.50;;;10.70;99.90;;;;;;5033164;28;20029;-81
2022/04/05 02:53:23;;;;;;;10.48;6.57;;;10.70;99.90;;;;;;5035670;28;20381;-83
2022/04/05 02:55:49;;;;;;;16.73;8.93;;;10.70;99.90;;;;;;5034828;28;20088;-78
2022/04/05 02:58:15;;;;;;;17.27;8.93;;;10.70;99.90;;;;;;5032568;28;20132;-83
2022/04/05 03:00:43;;;;;;;14.07;8.50;;;10.70;99.90;;;;;;5033136;28;20036;-81
2022/04/05 03:03:12;;;;;;;18.00;8.77;;;10.70;99.90;;;;;;5044153;28;20094;-83
2022/04/05 03:05:44;;;;;;;;;;;10.70;99.90;;;;;;5053154;28;20025;-84
2022/04/05 03:08:10;;;;;;;17.33;8.27;;;10.70;99.90;;;;;;5052676;28;19934;-84
2022/04/05 03:10:40;;;;;;;16.38;8.57;;;10.60;99.90;;;;;;5052782;28;20116;-84
2022/04/05 03:13:07;;;;;;;17.02;7.93;;;10.60;99.90;;;;;;5053785;28;20043;-83
2022/04/05 03:15:33;;;;;;;19.40;8.73;;;10.60;99.90;;;;;;5052518;28;20075;-85
2022/04/05 03:18:02;;;;;;;12.95;7.47;;;10.60;99.90;;;;;;5052243;28;20374;-84
2022/04/05 03:20:31;;;;;;;15.48;6.78;;;10.60;99.90;;;;;;5052483;28;20397;-84
2022/04/05 03:22:59;;;;;;;15.10;7.70;;;10.60;99.90;;;;;;5052199;28;20044;-84
2022/04/05 03:25:24;;;;;;;18.67;8.60;;;10.60;99.90;;;;;;5053527;28;20071;-84
2022/04/05 03:27:52;;;;;;;17.38;8.57;;;10.60;99.90;;;;;;5052135;28;20037;-84
2022/04/05 03:30:23;;;;;;;15.25;7.72;;;10.50;99.90;;;;;;5052164;28;20021;-83
2022/04/05 03:32:49;;;;;;;14.55;7.20;;;10.60;99.90;;;;;;5051964;28;20086;-82
2022/04/05 03:35:16;;;;;;;21.30;10.05;;;10.50;99.90;;;;;;5052125;28;20021;-83
2022/04/05 03:37:42;;;;;;;18.83;9.20;;;10.60;99.90;;;;;;5052104;28;20056;-83
2022/04/05 03:40:12;;;;;;;16.73;7.72;;;10.50;99.90;;;;;;5052193;28;20071;-84
2022/04/05 03:42:38;;;;;;;24.73;9.13;;;10.50;99.90;;;;;;5051785;28;20079;-84
2022/04/05 03:45:05;;;;;;;16.33;7.95;;;10.50;99.90;;;;;;5052027;28;20382;-84
2022/04/05 03:47:31;;;;;;;10.48;6.03;;;10.50;99.90;;;;;;5051526;28;20036;-84
2022/04/05 03:49:58;;;;;;;15.70;9.10;;;10.40;99.90;;;;;;5052099;28;20029;-81
2022/04/05 03:52:24;;;;;;;22.20;9.77;;;10.50;99.90;;;;;;5051755;28;20097;-83
2022/04/05 03:54:51;;;;;;;16.00;8.27;;;10.50;99.90;;;;;;5051918;28;20067;-83
2022/04/05 03:57:21;;;;;;;17.40;8.38;;;10.50;99.90;;;;;;5051592;28;20029;-83
2022/04/05 03:59:48;;;;;;;12.68;7.95;;;10.50;99.90;;;;;;5051955;28;20021;-83
2022/04/05 04:02:15;;;;;;;15.77;8.13;;;10.50;99.90;;;;;;5052584;28;20386;-82
2022/04/05 04:04:42;;;;;;;16.77;9.02;;;10.40;99.90;;;;;;5051561;28;20028;-83
2022/04/05 04:07:08;;;;;;;19.10;8.73;;;10.40;99.90;;;;;;5052994;28;20033;-79
2022/04/05 04:09:34;;;;;;;18.65;9.30;;;10.50;99.90;;;;;;5050781;28;20477;-82
2022/04/05 04:12:00;;;;;;;16.38;9.45;;;10.50;99.90;;;;;;5051841;28;20040;-82
2022/04/05 04:14:28;;;;;;;15.85;8.45;;;10.50;99.90;;;;;;5051413;28;20055;-81
2022/04/05 04:16:56;;;;;;;13.90;7.18;;;10.50;99.90;;;;;;5051493;28;20371;-82
2022/04/05 04:19:21;;;;;;;15.02;8.43;;;10.50;99.90;;;;;;5052789;28;20090;-83
2022/04/05 04:21:47;;;;;;;19.17;9.45;;;10.50;99.90;;;;;;5051547;28;20028;-80
2022/04/05 04:24:13;;;;;;;15.85;9.27;;;10.50;99.90;;;;;;5051451;28;20512;-83
2022/04/05 04:26:39;;;;;;;14.70;8.20;;;10.50;99.90;;;;;;5052660;28;20064;-83
2022/04/05 04:29:06;;;;;;;17.00;9.55;;;10.50;99.90;;;;;;5051393;28;20052;-76
2022/04/05 04:31:34;;;;;;;18.15;9.30;;;10.50;99.90;;;;;;5051190;28;20075;-83
2022/04/05 04:34:01;;;;;;;19.27;8.10;;;10.50;99.90;;;;;;5053156;28;20095;-83
2022/04/05 04:36:28;;;;;;;15.65;9.88;;;10.50;99.90;;;;;;5052940;28;20425;-80
2022/04/05 04:38:54;;;;;;;19.33;10.15;;;10.50;99.90;;;;;;5052543;28;20039;-83
2022/04/05 04:41:21;;;;;;;18.75;11.75;;;10.50;99.90;;;;;;5052554;28;20029;-82
2022/04/05 04:43:47;;;;;;;19.40;10.75;;;10.50;99.90;;;;;;5051383;28;20119;-82
2022/04/05 04:46:13;;;;;;;24.05;10.75;;;10.50;99.90;;;;;;5052491;28;20017;-81
2022/04/05 04:48:39;;;;;;;20.55;10.20;;;10.50;99.90;;;;;;5052285;28;20078;-83
2022/04/05 04:51:04;;;;;;;21.48;11.00;;;10.50;99.90;;;;;;5052538;28;20032;-82
2022/04/05 04:53:30;;;;;;;26.45;11.43;;;10.50;99.90;;;;;;5052331;28;20474;-76
2022/04/05 04:55:56;;;;;;;21.38;10.98;;;10.60;99.90;;;;;;5052601;28;20021;-79
2022/04/05 04:58:22;;;;;;;22.60;11.68;;;10.50;99.90;;;;;;5051141;28;20497;-78
2022/04/05 05:00:48;;;;;;;15.77;10.93;;;10.60;99.90;;;;;;5053026;28;20484;-82
2022/04/05 05:03:18;;;;;;;19.10;9.93;;;10.50;99.90;;;;;;5052352;28;20178;-79
2022/04/05 05:05:44;;;;;;;17.98;11.05;;;10.50;99.90;;;;;;5052468;28;20036;-82
2022/04/05 05:08:10;;;;;;;17.95;10.68;;;10.50;99.90;;;;;;5052627;28;20029;-81
2022/04/05 05:10:36;;;;;;;13.90;7.90;;;10.50;99.90;;;;;;5052370;28;20037;-80
2022/04/05 05:13:01;;;;;;;20.40;10.82;;;10.50;99.90;;;;;;5052322;28;20056;-77
2022/04/05 05:15:27;;;;;;;14.65;9.70;;;10.50;99.90;;;;;;5052139;28;20371;-80
2022/04/05 05:17:55;;;;;;;21.80;9.95;;;10.50;99.90;;;;;;5052229;28;20029;-82
2022/04/05 05:20:22;;;;;;;16.38;10.60;;;10.50;99.90;;;;;;5053564;28;20373;-82
2022/04/05 05:22:47;;;;;;;11.13;7.85;;;10.50;99.90;;;;;;5055820;28;20039;-83
2022/04/05 05:25:14;;;;;;;18.15;8.55;;;10.50;99.90;;;;;;5055868;28;20029;-81
2022/04/05 05:27:39;;;;;;;14.43;8.32;;;10.50;99.90;;;;;;5055554;28;20396;-85
2022/04/05 05:30:07;;;;;;;15.80;9.43;;;10.50;99.90;;;;;;5056291;28;20029;-84
2022/04/05 05:32:44;;;;;;;11.70;7.93;;;10.50;99.90;;;;;;5054673;28;20052;-83
2022/04/05 05:35:10;;;;;;;17.40;8.40;;;10.50;99.90;;;;;;5054272;28;20112;-83
2022/04/05 05:37:36;;;;;;;14.70;8.48;;;10.50;99.90;;;;;;5055715;28;20624;-80
2022/04/05 05:40:02;;;;;;;17.27;7.90;;;10.50;99.90;;;;;;5055661;28;20025;-83
2022/04/05 05:42:28;;;;;;;14.20;8.98;;;10.50;99.90;;;;;;5055293;28;20132;-82
2022/04/05 05:44:54;;;;;;;15.63;7.75;;;10.60;99.90;;;;;;5055462;28;20138;-83
2022/04/05 05:47:19;;;;;;;14.27;7.97;;;10.60;99.90;;;;;;5055540;28;20041;-83
2022/04/05 05:49:45;;;;;;;12.43;8.30;;;10.60;99.90;;;;;;5055257;28;20029;-83
2022/04/05 05:52:11;;;;;;;17.50;8.63;;;10.60;99.90;;;;;;5055548;28;20021;-83
2022/04/05 05:54:36;;;;;;;14.48;8.10;;;10.60;99.90;;;;;;5055321;28;20410;-81
2022/04/05 05:57:02;;;;;;;15.85;7.78;;;10.60;99.90;;;;;;5055104;28;20462;-82
2022/04/05 05:59:28;;;;;;;11.00;5.60;;;10.60;99.90;;;;;;5055350;28;20024;-83
2022/04/05 06:01:56;;;;;;;11.82;7.25;;;10.60;99.90;;;;;;5054857;28;20061;-83
2022/04/05 06:04:22;;;;;;;9.10;6.05;;;10.60;99.90;;;;;;5055136;28;20029;-83
2022/04/05 06:06:47;;;;;;;11.82;7.15;;;10.60;99.90;;;;;;5055488;28;20037;-83
2022/04/05 06:09:13;;;;;;;11.23;7.05;;;10.70;99.90;;;;;;5055215;28;20029;-82
2022/04/05 06:11:39;;;;;;;12.80;6.50;;;10.60;99.90;;;;;;5054649;28;20497;-84
2022/04/05 06:14:04;;;;;;;16.95;7.35;;;10.60;99.90;;;;;;5054916;28;20033;-83
2022/04/05 06:16:30;;;;;;;10.57;6.47;;;10.70;99.90;;;;;;5054767;28;20029;-83
2022/04/05 06:18:56;;;;;;;8.32;6.45;;;10.70;99.90;;;;;;5055076;28;20035;-82
2022/04/05 06:21:22;;;;;;;11.85;6.93;;;10.70;99.90;;;;;;5054700;28;20048;-83
2022/04/05 06:23:47;;;;;;;12.20;7.05;;;10.80;99.90;;;;;;5054697;28;20052;-82
2022/04/05 06:26:13;;;;;;;17.65;7.45;;;10.80;99.90;;;;;;5054288;28;20033;-82
2022/04/05 06:28:39;;;;;;;10.07;5.47;;;10.70;99.90;;;;;;5054799;28;20481;-81
2022/04/05 06:31:05;;;;;;;10.38;5.57;;;10.80;99.90;;;;;;5053347;28;20033;-83
2022/04/05 06:33:31;;;;;;;11.07;6.55;;;10.70;99.90;;;;;;5053978;28;20024;-80
2022/04/05 06:35:58;;;;;;;11.20;7.05;;;10.80;99.90;;;;;;5054265;28;20119;-83
2022/04/05 06:38:24;;;;;;;12.35;7.75;;;10.70;99.90;;;;;;5053849;28;20159;-83
2022/04/05 06:40:52;;;;;;;10.00;6.60;;;10.70;99.90;;;;;;5054404;28;20531;-85
2022/04/05 06:43:25;;;;;;;15.15;8.07;;;10.80;99.90;;;;;;5054350;28;20044;-83
2022/04/05 06:45:51;;;;;;;12.25;7.85;;;10.80;99.90;;;;;;5054245;28;20512;-84
2022/04/05 06:48:17;;;;;;;10.10;5.80;;;10.80;99.90;;;;;;5054254;28;20397;-84
2022/04/05 06:50:43;;;;;;;19.25;8.55;;;10.80;99.90;;;;;;5054497;28;20116;-82
2022/04/05 06:53:10;;;;;;;11.23;7.45;;;10.80;99.90;;;;;;5053048;28;20111;-80
2022/04/05 06:55:36;;;;;;;10.48;6.88;;;10.70;99.90;;;;;;5054022;28;20465;-83
2022/04/05 06:58:02;;;;;;;14.20;7.70;;;10.70;99.90;;;;;;5052912;28;20075;-84
2022/04/05 07:00:28;;;;;;;16.33;7.22;;;10.80;99.90;;;;;;5054319;28;20027;-83
2022/04/05 07:02:56;;;;;;;10.35;7.50;;;10.70;99.90;;;;;;5053949;28;20397;-82
2022/04/05 07:05:23;;;;;;;10.40;6.13;;;10.80;99.90;;;;;;5054193;28;20028;-83
2022/04/05 07:07:49;;;;;;;13.18;7.57;;;10.70;99.90;;;;;;5054194;28;20029;-84
2022/04/05 07:10:16;;;;;;;14.27;8.38;;;10.80;99.90;;;;;;5053964;28;20047;-84
2022/04/05 07:12:43;;;;;;;14.07;7.10;;;10.80;99.90;;;;;;5052710;28;20401;-83
2022/04/05 07:15:10;;;;;;;11.18;8.38;;;10.80;99.90;;;;;;5054029;28;20029;-82
2022/04/05 07:17:39;;;;;;;11.55;7.78;;;10.80;99.90;;;;;;5053711;28;20028;-81
2022/04/05 07:20:08;;;;;;;9.18;6.85;;;10.80;99.90;;;;;;5053843;28;20575;-83
2022/04/05 07:22:35;;;;;;;8.75;6.70;;;10.80;99.90;;;;;;5053470;28;20036;-80
2022/04/05 07:25:01;;;;;;;13.45;6.95;;;10.80;99.90;;;;;;5053321;28;20021;-82
2022/04/05 07:27:27;;;;;;;12.52;8.00;;;10.80;99.90;;;;;;5053612;28;20126;-82
2022/04/05 07:29:52;;;;;;;10.38;7.20;;;10.90;99.90;;;;;;5053645;28;20071;-83
2022/04/05 07:32:18;;;;;;;10.85;6.85;;;10.90;99.90;;;;;;5053956;28;20029;-81
2022/04/05 07:34:44;;;;;;;12.07;8.73;;;10.90;99.90;;;;;;5053180;28;20147;-80
2022/04/05 07:37:11;;;;;;;13.68;8.80;;;10.90;99.90;;;;;;5053357;28;20029;-83
2022/04/05 07:39:40;;;;;;;10.25;7.45;;;10.90;99.90;;;;;;5053116;28;20420;-83
2022/04/05 07:42:06;;;;;;;9.18;7.88;;;10.90;99.90;;;;;;5053364;28;20024;-84
2022/04/05 07:44:33;;;;;;;12.73;7.85;;;10.90;99.90;;;;;;5053270;28;20469;-83
2022/04/05 07:46:58;;;;;;;12.75;7.15;;;11.00;99.90;;;;;;5051818;28;20390;-82
2022/04/05 07:49:25;;;;;;;7.72;5.28;;;11.00;99.90;;;;;;5053229;28;20035;-82
2022/04/05 07:51:50;;;;;;;10.52;7.15;;;11.00;99.90;;;;;;5053304;28;20017;-83
2022/04/05 07:54:16;;;;;;;11.43;6.55;;;11.10;99.90;;;;;;5052824;28;20367;-83
2022/04/05 07:56:42;;;;;;;9.45;6.32;;;11.10;99.90;;;;;;5053252;28;20021;-82
2022/04/05 07:59:07;;;;;;;11.63;6.60;;;11.20;99.90;;;;;;5053268;28;20060;-82
2022/04/05 08:01:33;;;;;;;16.92;7.53;;;11.20;99.90;;;;;;5051767;28;20040;-83
2022/04/05 08:03:59;;;;;;;8.77;7.40;;;11.20;99.90;;;;;;5053081;28;20036;-83
2022/04/05 08:06:25;;;;;;;8.38;5.80;;;11.30;99.90;;;;;;5052769;28;20026;-82
2022/04/05 08:08:51;;;;;;;9.88;6.78;;;11.30;99.90;;;;;;5052617;28;20053;-83
2022/04/05 08:11:17;;;;;;;10.57;6.10;;;11.40;99.90;;;;;;5051862;28;20699;-82
2022/04/05 08:13:42;;;;;;;10.73;5.43;;;11.40;99.90;;;;;;5052799;28;20029;-83
2022/04/05 08:16:08;;;;;;;12.73;5.13;;;11.40;99.90;;;;;;5053160;28;20025;-83
2022/04/05 08:18:35;;;;;;;12.07;6.32;;;11.40;99.90;;;;;;5052753;28;20036;-83
2022/04/05 08:21:00;;;;;;;8.10;5.13;;;11.40;99.90;;;;;;5052876;28;20086;-83
2022/04/05 08:23:26;;;;;;;9.02;6.50;;;11.40;99.90;;;;;;5051232;28;20044;-83
2022/04/05 08:25:52;;;;;;;9.07;5.07;;;11.50;99.90;;;;;;5052668;28;20096;-83
2022/04/05 08:28:19;;;;;;;17.45;6.97;;;11.40;99.90;;;;;;5052691;28;20112;-83
2022/04/05 08:30:45;;;;;;;8.43;4.60;;;11.40;99.90;;;;;;5051355;28;20079;-83
2022/04/05 08:33:11;;;;;;;9.75;5.70;;;11.30;99.90;;;;;;5052643;28;20053;-83
2022/04/05 08:35:37;;;;;;;7.80;5.03;;;11.30;99.90;;;;;;5052767;28;20075;-83
2022/04/05 08:38:03;;;;;;;10.23;6.38;;;11.30;99.90;;;;;;5052450;28;20037;-82
2022/04/05 08:40:28;;;;;;;8.55;6.20;;;11.40;99.90;;;;;;5052479;28;20092;-82
2022/04/05 08:42:56;;;;;;;8.93;5.43;;;11.30;99.90;;;;;;5052571;28;20045;-83
2022/04/05 08:45:23;;;;;;;10.13;5.82;;;11.30;99.90;;;;;;5052414;28;20021;-82
2022/04/05 08:47:51;;;;;;;12.20;5.60;;;11.40;99.90;;;;;;5051188;28;20116;-83
2022/04/05 08:50:22;;;;;;;8.40;5.10;;;11.40;99.90;;;;;;5052564;28;20095;-83
2022/04/05 08:52:48;;;;;;;10.97;6.87;;;11.40;99.90;;;;;;5052135;28;20090;-82
2022/04/05 08:55:15;;;;;;;8.68;5.75;;;11.50;99.90;;;;;;5053571;28;20481;-82
2022/04/05 08:57:41;;;;;;;8.63;5.65;;;11.40;99.90;;;;;;5056372;28;20037;-82
2022/04/05 09:00:09;;;;;;;9.38;5.97;;;11.50;99.90;;;;;;5054998;28;20496;-83
2022/04/05 09:02:36;;;;;;;7.00;5.18;;;11.60;99.90;;;;;;5056266;28;20037;-82
2022/04/05 09:05:02;;;;;;;7.32;5.20;;;11.60;99.90;;;;;;5055730;28;20017;-83
2022/04/05 09:07:33;;;;;;;10.82;5.40;;;11.60;99.90;;;;;;5056129;28;20044;-82
2022/04/05 09:10:13;;;;;;;9.98;5.60;;;11.50;99.90;;;;;;5056218;28;20025;-83
2022/04/05 09:12:47;;;;;;;8.50;5.80;;;11.60;99.90;;;;;;5056214;28;20363;-82
2022/04/05 09:15:16;;;;;;;7.40;5.50;;;11.60;99.90;;;;;;5056122;28;20043;-82
2022/04/05 09:17:43;;;;;;;10.23;5.60;;;11.60;99.90;;;;;;5056171;28;20475;-79
2022/04/05 09:20:10;;;;;;;8.45;4.82;;;11.60;99.90;;;;;;5055626;28;20104;-83
2022/04/05 09:22:36;;;;;;;12.68;6.47;;;11.60;99.90;;;;;;5056114;28;20489;-83
2022/04/05 09:25:10;;;;;;;7.75;5.13;;;11.70;99.90;;;;;;5055691;28;20067;-82
2022/04/05 09:27:51;;;;;;;7.10;5.03;;;11.60;99.90;;;;;;5055938;28;20733;-83
2022/04/05 09:30:28;;;;;;;8.82;5.78;;;11.60;99.90;;;;;;5055724;28;20033;-83
2022/04/05 09:32:55;;;;;;;7.10;4.00;;;11.70;99.90;;;;;;5055881;28;20041;-83
2022/04/05 09:35:27;;;;;;;10.65;6.40;;;11.60;99.90;;;;;;5054055;28;20021;-81
2022/04/05 09:38:08;;;;;;;;;;;11.80;99.90;;;;;;5055975;28;20043;-83
2022/04/05 09:40:35;;;;;;;8.68;5.88;;;11.70;99.90;;;;;;5055553;28;19908;-83
2022/04/05 09:43:10;;;;;;;6.85;5.45;;;11.80;99.90;;;;;;5055647;28;20509;-82
2022/04/05 09:45:58;;;;;;;7.35;5.03;;;11.80;99.90;;;;;;5055310;28;20025;-83
2022/04/05 09:48:30;;;;;;;9.02;5.50;;;11.80;99.90;;;;;;5055438;28;20036;-83
2022/04/05 09:51:00;;;;;;;;;;;11.90;99.90;;;;;;5055716;28;20036;-81
2022/04/05 09:53:28;;;;;;;8.27;6.13;;;12.00;99.90;;;;;;5055378;28;20392;-83
2022/04/05 09:56:15;;;;;;;6.20;5.10;;;12.10;99.90;;;;;;5054002;28;20398;-83
2022/04/05 09:58:46;;;;;;;9.10;5.57;;;12.00;99.90;;;;;;5054049;28;20064;-84
2022/04/05 10:01:12;;;;;;;8.57;5.53;;;12.00;99.90;;;;;;5055146;28;20033;-80
2022/04/05 10:03:40;;;;;;;9.07;5.47;;;12.20;99.90;;;;;;5054663;28;20397;-82
2022/04/05 10:06:06;;;;;;;7.07;5.22;;;12.20;99.90;;;;;;5054631;28;20021;-83
2022/04/05 10:08:34;;;;;;;8.05;5.30;;;12.10;99.90;;;;;;5054524;28;20037;-83
2022/04/05 10:11:01;;;;;;;7.57;5.60;;;12.00;99.90;;;;;;5054840;28;20017;-83
2022/04/05 10:13:27;;;;;;;7.72;6.07;;;12.10;99.90;;;;;;5054922;28;20052;-81
2022/04/05 10:15:54;;;;;;;7.45;6.28;;;11.90;99.90;;;;;;5055183;28;20124;-81
2022/04/05 10:18:20;;;;;;;7.05;5.72;;;12.00;99.90;;;;;;5054700;28;20029;-82
2022/04/05 10:20:50;;;;;;;7.40;5.80;;;12.00;99.90;;;;;;5054902;28;20054;-83
2022/04/05 10:23:22;;;;;;;6.55;4.30;;;12.00;99.90;;;;;;5055143;28;20052;-84
2022/04/05 10:25:51;;;;;;;5.90;4.47;;;11.90;99.90;;;;;;5054683;28;20481;-82
2022/04/05 10:28:22;;;;;;;6.25;4.07;;;11.80;99.90;;;;;;5055630;28;20037;-82
2022/04/05 10:31:06;;;;;;;6.30;4.78;;;11.70;99.90;;;;;;5055734;28;20079;-74
2022/04/05 10:34:02;;;;;;;6.82;4.53;;;11.80;99.90;;;;;;5053956;28;20444;-82
2022/04/05 10:36:28;;;;;;;6.93;4.60;;;11.80;99.90;;;;;;5055612;28;20025;-82
2022/04/05 10:39:16;;;;;;;5.15;4.40;;;11.80;99.90;;;;;;5055477;28;20402;-83
2022/04/05 10:42:02;;;;;;;8.60;5.30;;;11.80;99.90;;;;;;5055221;28;20029;-82
2022/04/05 10:44:28;;;;;;;6.97;4.88;;;11.90;99.90;;;;;;5055287;28;20098;-82
2022/04/05 10:47:01;;;;;;;6.75;4.47;;;12.00;99.90;;;;;;5054894;28;20424;-83
2022/04/05 10:49:39;;;;;;;6.80;4.90;;;12.00;99.90;;;;;;5055315;28;20044;-83
2022/04/05 10:52:07;;;;;;;5.68;3.92;;;12.00;99.90;;;;;;5055372;28;20025;-83
2022/04/05 10:54:39;;;;;;;9.15;4.32;;;12.00;99.90;;;;;;5056789;28;20492;-84
2022/04/05 10:57:30;;;;;;;9.88;4.10;;;11.90;99.90;;;;;;5053297;28;20389;-83
2022/04/05 11:00:12;;;;;;;7.80;4.85;;;11.90;99.90;;;;;;5054351;28;20037;-83
2022/04/05 11:03:03;;;;;;;5.22;3.92;;;11.90;99.90;;;;;;5053800;28;20033;-82
2022/04/05 11:05:38;;;;;;;7.53;3.92;;;11.90;99.90;;;;;;5054456;28;20029;-83
2022/04/05 11:08:14;;;;;;;4.55;4.07;;;12.00;99.90;;;;;;5054015;28;20041;-82
2022/04/05 11:10:39;;;;;;;4.80;3.47;;;12.20;99.90;;;;;;5053628;28;20108;-83
2022/04/05 11:13:18;;;;;;;6.72;3.72;;;12.30;99.90;;;;;;5057816;28;20108;-83
2022/04/05 11:15:48;;;;;;;4.68;4.18;;;12.50;99.90;;;;;;5056716;28;20029;-83
2022/04/05 11:18:19;;;;;;;6.90;3.40;;;12.90;99.90;;;;;;5066914;28;20032;-82
2022/04/05 11:20:47;;;;;;;4.65;3.08;;;12.70;99.90;;;;;;5059472;28;20441;-82
2022/04/05 11:23:14;;;;;;;3.90;3.50;;;12.50;99.90;;;;;;5053631;28;20039;-83
2022/04/05 11:25:42;;;;;;;4.95;3.10;;;12.60;99.90;;;;;;5053384;28;20039;-83
2022/04/05 11:28:21;;;;;;;7.60;4.05;;;12.60;99.90;;;;;;5053641;28;20449;-83
2022/04/05 11:30:55;;;;;;;4.68;2.83;;;12.70;99.90;;;;;;5052215;28;20024;-83
2022/04/05 11:33:30;;;;;;;2.88;2.53;;;12.50;99.90;;;;;;5053699;28;20029;-83
2022/04/05 11:36:04;;;;;;;3.92;2.95;;;12.60;99.90;;;;;;5053388;28;20071;-83
2022/04/05 11:38:33;;;;;;;5.53;3.47;;;12.70;99.90;;;;;;5053470;28;20071;-83
2022/04/05 11:41:08;;;;;;;4.65;2.97;;;12.80;99.90;;;;;;5053382;28;20071;-82
2022/04/05 11:43:45;;;;;;;3.83;3.53;;;12.70;99.90;;;;;;5053159;28;20045;-83
2022/04/05 11:46:14;;;;;;;4.10;3.70;;;12.70;99.90;;;;;;5053045;28;20397;-83
2022/04/05 11:48:46;;;;;;;4.55;3.85;;;12.70;99.90;;;;;;5051894;28;20094;-81
2022/04/05 11:51:14;;;;;;;3.17;2.88;;;12.80;99.90;;;;;;5053220;28;20029;-83
2022/04/05 11:53:42;;;;;;;3.85;2.83;;;12.80;99.90;;;;;;5051792;28;20090;-84
2022/04/05 11:56:13;;;;;;;4.45;2.83;;;12.80;99.90;;;;;;5053407;28;20041;-82
2022/04/05 11:58:47;;;;;;;4.68;2.85;;;12.90;99.90;;;;;;5053008;28;20029;-83
2022/04/05 12:01:18;;;;;;;3.80;3.28;;;12.70;99.90;;;;;;5052869;28;20041;-83
2022/04/05 12:03:53;;;;;;;5.35;3.13;;;12.80;99.90;;;;;;5052797;28;20037;-83
2022/04/05 12:06:29;;;;;;;4.22;2.63;;;12.90;99.90;;;;;;5052772;28;20075;-83
2022/04/05 12:08:57;;;;;;;4.68;2.67;;;13.00;99.90;;;;;;5051830;28;20043;-83
2022/04/05 12:11:27;;;;;;;3.83;2.08;;;12.90;99.90;;;;;;5053117;28;20493;-80
2022/04/05 12:14:10;;;;;;;3.65;1.98;;;13.00;99.90;;;;;;5052560;28;20064;-79
2022/04/05 12:17:00;;;;;;;3.33;2.33;;;12.90;99.90;;;;;;5052959;28;20482;-83
2022/04/05 12:19:37;;;;;;;3.42;2.30;;;12.90;99.90;;;;;;5052828;28;20040;-82
2022/04/05 12:22:09;;;;;;;2.47;2.20;;;12.80;99.90;;;;;;5052785;28;20037;-82
2022/04/05 12:24:40;;;;;;;2.88;2.50;;;12.70;99.90;;;;;;5052611;28;20037;-83
2022/04/05 12:27:06;;;;;;;3.75;2.13;;;13.10;99.90;;;;;;5052816;28;20044;-83
2022/04/05 12:29:39;;;;;;;1.40;1.30;;;13.10;99.90;;;;;;5050436;28;20068;-82
2022/04/05 12:32:10;;;;;;;3.00;2.28;;;12.90;99.90;;;;;;5035376;28;20067;-82
2022/04/05 12:34:37;;;;;;;2.50;2.10;;;13.20;99.90;;;;;;5052468;28;20473;-82
2022/04/05 12:37:05;;;;;;;3.38;2.10;;;13.40;99.90;;;;;;5052491;28;20025;-83
2022/04/05 12:39:33;;;;;;;3.65;2.00;;;13.60;99.90;;;;;;5052445;28;20470;-83
2022/04/05 12:42:07;;;;;;;2.10;1.90;;;13.60;99.90;;;;;;5052441;28;20434;-82
2022/04/05 12:44:35;;;;;;;5.13;2.17;;;13.20;99.90;;;;;;5052173;28;20032;-82